Time;durP1;ratioP1;P1;durP2;ratioP2;P2;SDS_P1;SDS_P2;PMS_P1;PMS_P2;Temp;Humidity;BMP_temperature;BMP_pressure;BME280_temperature;BME280_humidity;BME280_pressure;Samples;Min_cycle;Max_cycle;Signal;HPM_P1;HPM_P2
2022/03/23 00:01:04;;;;;;;82.72;43.90;;;;;;;5.29;49.56;101224.13;4935381;29;20428;-80
2022/03/23 00:03:30;;;;;;;91.25;45.00;;;;;;;5.29;50.00;101219.81;4935040;29;20042;-80
2022/03/23 00:05:55;;;;;;;72.95;39.38;;;;;;;5.28;50.20;101223.28;4935581;29;20507;-80
2022/03/23 00:08:21;;;;;;;70.43;40.58;;;;;;;5.29;50.03;101225.00;4936749;29;20023;-80
2022/03/23 00:10:47;;;;;;;81.78;42.97;;;;;;;5.27;50.21;101221.56;4935193;29;20036;-81
2022/03/23 00:13:13;;;;;;;86.60;44.50;;;;;;;5.19;50.47;101218.13;4935019;29;20519;-81
2022/03/23 00:15:39;;;;;;;64.47;36.90;;;;;;;5.21;50.70;101218.97;4935016;29;20059;-81
2022/03/23 00:18:05;;;;;;;59.28;35.63;;;;;;;5.21;51.24;101235.31;4934958;29;20055;-81
2022/03/23 00:20:31;;;;;;;61.25;34.50;;;;;;;5.00;51.31;101202.59;4934730;29;20066;-81
2022/03/23 00:22:57;;;;;;;72.13;40.38;;;;;;;5.11;52.15;101220.69;4936301;29;20043;-81
2022/03/23 00:25:23;;;;;;;69.85;39.17;;;;;;;5.12;52.20;101232.72;4935070;29;20035;-81
2022/03/23 00:27:48;;;;;;;57.15;33.47;;;;;;;5.10;52.05;101223.25;4934735;29;20028;-81
2022/03/23 00:30:13;;;;;;;54.00;29.67;;;;;;;5.08;52.08;101212.06;4934908;29;20027;-81
2022/03/23 00:32:39;;;;;;;50.45;30.10;;;;;;;5.08;52.26;101212.94;4934643;29;20035;-81
2022/03/23 00:35:04;;;;;;;49.47;31.20;;;;;;;5.10;52.14;101218.06;4935858;29;20028;-81
2022/03/23 00:37:30;;;;;;;55.42;33.15;;;;;;;5.07;52.38;101212.94;4934600;29;20061;-80
2022/03/23 00:39:55;;;;;;;55.03;32.25;;;;;;;5.01;52.44;101208.59;4934774;29;20028;-81
2022/03/23 00:42:21;;;;;;;50.83;31.88;;;;;;;4.97;52.58;101212.94;4935902;29;20365;-81
2022/03/23 00:44:46;;;;;;;49.55;30.52;;;;;;;4.89;53.03;101206.03;4934417;29;20027;-81
2022/03/23 00:47:12;;;;;;;72.32;37.42;;;;;;;4.85;53.09;101204.31;4936036;29;20461;-81
2022/03/23 00:49:38;;;;;;;68.32;35.58;;;;;;;4.72;53.56;101191.38;4934498;29;20031;-81
2022/03/23 00:52:06;;;;;;;51.25;33.05;;;;;;;4.65;54.19;101194.78;4935866;29;20031;-81
2022/03/23 00:54:35;;;;;;;55.55;31.63;;;;;;;4.65;54.64;101202.53;4934318;28;20399;-81
2022/03/23 00:57:05;;;;;;;48.67;30.17;;;;;;;4.60;54.87;101209.41;4935913;29;20485;-80
2022/03/23 00:59:30;;;;;;;49.45;30.85;;;;;;;4.56;55.06;101205.09;4934294;29;20023;-80
2022/03/23 01:01:56;;;;;;;50.78;32.15;;;;;;;4.49;54.99;101196.47;4932744;29;20091;-80
2022/03/23 01:04:23;;;;;;;54.92;33.63;;;;;;;4.48;54.43;101199.91;4917115;29;20040;-80
2022/03/23 01:06:52;;;;;;;55.95;33.63;;;;;;;4.39;54.57;101181.81;4916741;29;20781;-81
2022/03/23 01:09:22;;;;;;;66.60;36.85;;;;;;;4.50;54.54;101199.91;4917111;29;20032;-81
2022/03/23 01:11:49;;;;;;;56.83;34.13;;;;;;;4.47;55.22;101202.50;4916855;29;20031;-81
2022/03/23 01:14:14;;;;;;;55.70;33.97;;;;;;;4.42;55.50;101189.53;4932866;29;20047;-81
2022/03/23 01:16:40;;;;;;;54.95;32.55;;;;;;;4.40;55.60;101204.19;4916727;29;20034;-81
2022/03/23 01:19:06;;;;;;;55.70;33.38;;;;;;;4.37;56.19;101192.97;4916978;29;20058;-79
2022/03/23 01:21:32;;;;;;;63.28;34.83;;;;;;;4.29;56.03;101194.66;4917054;29;20475;-80
2022/03/23 01:23:57;;;;;;;64.18;36.15;;;;;;;4.15;56.47;101179.16;4932852;29;20079;-80
2022/03/23 01:26:23;;;;;;;74.07;39.50;;;;;;;4.24;56.29;101202.38;4932879;29;20179;-80
2022/03/23 01:28:49;;;;;;;74.97;42.78;;;;;;;4.08;56.56;101182.53;4916605;29;20090;-79
2022/03/23 01:31:14;;;;;;;63.45;37.30;;;;;;;4.09;57.03;101194.56;4932670;29;20617;-80
2022/03/23 01:33:39;;;;;;;59.88;35.28;;;;;;;4.01;57.26;101189.41;4916423;29;20179;-80
2022/03/23 01:36:06;;;;;;;57.63;34.45;;;;;;;3.96;57.71;101186.81;4932578;29;20063;-79
2022/03/23 01:38:31;;;;;;;58.83;34.67;;;;;;;3.88;57.69;101191.06;4932922;29;20495;-79
2022/03/23 01:40:56;;;;;;;58.08;34.95;;;;;;;3.78;58.09;101173.81;4935027;29;20036;-80
2022/03/23 01:43:22;;;;;;;62.28;37.53;;;;;;;3.74;58.48;101174.63;4951418;28;20430;-79
2022/03/23 01:45:47;;;;;;;61.80;38.10;;;;;;;3.77;58.85;101184.13;4935312;29;20035;-80
2022/03/23 01:48:13;;;;;;;61.60;39.20;;;;;;;3.72;59.34;101181.50;4935044;29;20043;-80
2022/03/23 01:50:40;;;;;;;68.18;40.65;;;;;;;3.70;59.40;101178.06;4951428;29;20123;-79
2022/03/23 01:53:06;;;;;;;72.40;41.95;;;;;;;3.67;59.49;101188.38;4935566;29;20075;-79
2022/03/23 01:55:31;;;;;;;71.22;42.08;;;;;;;3.62;59.82;101185.72;4935504;29;20153;-80
2022/03/23 01:57:56;;;;;;;66.60;41.65;;;;;;;3.59;60.00;101188.31;4951270;29;20043;-80
2022/03/23 02:00:22;;;;;;;60.58;34.90;;;;;;;3.56;60.46;101179.69;4951627;28;20027;-80
2022/03/23 02:02:48;;;;;;;55.35;33.85;;;;;;;3.50;60.54;101170.22;4935044;29;20055;-80
2022/03/23 02:05:15;;;;;;;59.58;34.22;;;;;;;3.56;60.94;101184.84;4951473;29;20035;-79
2022/03/23 02:07:40;;;;;;;54.22;33.70;;;;;;;3.36;61.08;101166.66;4935188;29;20154;-79
2022/03/23 02:10:07;;;;;;;62.42;34.92;;;;;;;3.36;61.40;101177.81;4935304;29;20594;-81
2022/03/23 02:12:32;;;;;;;61.38;34.55;;;;;;;3.29;62.26;101178.66;4935243;29;20035;-80
2022/03/23 02:15:00;;;;;;;61.83;34.33;;;;;;;3.20;62.66;101164.00;4932545;29;20126;-81
2022/03/23 02:17:26;;;;;;;60.80;33.17;;;;;;;3.19;62.89;101164.81;4933471;29;20099;-80
2022/03/23 02:19:52;;;;;;;60.72;34.72;;;;;;;3.12;63.50;101169.91;4934247;29;20035;-80
2022/03/23 02:22:18;;;;;;;64.68;35.63;;;;;;;3.00;63.80;101156.09;4933292;29;20494;-81
2022/03/23 02:24:45;;;;;;;53.70;33.15;;;;;;;2.92;63.94;101152.59;4933080;29;20462;-80
2022/03/23 02:27:12;;;;;;;55.22;34.00;;;;;;;2.96;63.82;101166.38;4934398;29;20024;-81
2022/03/23 02:29:38;;;;;;;52.42;31.63;;;;;;;2.94;63.91;101162.91;4933172;29;20078;-80
2022/03/23 02:32:04;;;;;;;58.13;33.25;;;;;;;2.84;64.19;101156.81;4933384;29;20033;-80
2022/03/23 02:34:30;;;;;;;53.15;30.65;;;;;;;2.84;64.09;101159.38;4951048;29;20643;-80
2022/03/23 02:36:59;;;;;;;57.50;31.58;;;;;;;2.76;64.63;101148.16;4951303;29;20050;-80
2022/03/23 02:39:28;;;;;;;53.42;31.40;;;;;;;2.81;64.35;101158.50;4951206;29;20043;-80
2022/03/23 02:41:54;;;;;;;55.20;32.10;;;;;;;2.81;64.46;101166.22;4934699;29;20035;-80
2022/03/23 02:44:20;;;;;;;54.15;32.30;;;;;;;2.77;65.07;101167.91;4934898;29;20491;-80
2022/03/23 02:46:46;;;;;;;51.00;31.50;;;;;;;2.68;65.10;101157.53;4934825;29;20068;-80
2022/03/23 02:49:12;;;;;;;53.75;31.10;;;;;;;2.71;64.71;101162.69;4934967;29;20039;-80
2022/03/23 02:51:38;;;;;;;51.17;31.45;;;;;;;2.64;65.18;101156.63;4951093;29;20039;-80
2022/03/23 03:02:37;;;;;;;62.67;36.60;;;;;;;2.46;65.80;101161.59;4954489;29;20423;-80
2022/03/23 03:05:04;;;;;;;64.70;36.35;;;;;;;2.35;66.02;101150.31;4935356;29;20036;-80
2022/03/23 03:08:44;;;;;;;57.92;34.17;;;;;;;2.33;66.47;101158.03;4936444;28;20384;-80
2022/03/23 03:10:15;;;;;;;59.55;36.20;;;;;;;2.28;67.21;101153.69;4937558;29;20072;-80
2022/03/23 03:12:42;;;;;;;65.63;37.63;;;;;;;2.20;67.60;101157.03;4937186;29;20106;-79
2022/03/23 03:15:10;;;;;;;62.85;36.13;;;;;;;2.15;68.22;101161.25;4936276;29;20050;-79
2022/03/23 03:17:35;;;;;;;61.90;37.58;;;;;;;2.13;68.46;101167.22;4937706;29;20031;-79
2022/03/23 03:20:00;;;;;;;63.90;38.65;;;;;;;2.10;68.70;101160.31;4937615;29;20038;-79
2022/03/23 03:22:26;;;;;;;64.65;37.70;;;;;;;2.11;68.69;101163.78;4937414;29;20470;-79
2022/03/23 03:24:51;;;;;;;67.53;40.08;;;;;;;2.07;68.82;101150.00;4937502;29;20039;-79
2022/03/23 03:27:17;;;;;;;71.63;40.42;;;;;;;2.11;68.61;101156.91;4936049;29;20110;-79
2022/03/23 03:29:42;;;;;;;60.42;35.70;;;;;;;1.98;68.99;101130.22;4935689;29;20024;-79
2022/03/23 03:32:08;;;;;;;61.40;33.88;;;;;;;2.11;68.88;101150.91;4937119;29;20110;-79
2022/03/23 03:34:33;;;;;;;62.17;33.72;;;;;;;2.12;68.84;101160.34;4936072;29;20138;-80
2022/03/23 03:36:59;;;;;;;58.10;33.83;;;;;;;2.07;68.89;101157.72;4936858;29;20042;-79
2022/03/23 03:39:24;;;;;;;54.97;32.90;;;;;;;2.04;68.92;101154.25;4937389;29;20020;-80
2022/03/23 03:41:49;;;;;;;59.50;35.33;;;;;;;2.01;68.78;101149.91;4936870;29;20551;-80
2022/03/23 03:44:15;;;;;;;63.75;37.42;;;;;;;1.94;69.12;101151.56;4953587;28;20138;-80
2022/03/23 03:46:40;;;;;;;62.08;36.10;;;;;;;1.94;68.83;101146.44;4937770;29;20488;-81
2022/03/23 03:49:06;;;;;;;57.22;34.55;;;;;;;1.93;69.74;101152.38;4937614;29;20139;-80
2022/03/23 03:51:32;;;;;;;56.03;34.22;;;;;;;1.84;69.39;101143.72;4953673;29;20053;-80
2022/03/23 03:53:57;;;;;;;66.07;38.35;;;;;;;1.83;69.89;101142.00;4953348;29;20039;-80
2022/03/23 03:56:22;;;;;;;62.97;37.88;;;;;;;1.77;68.72;101145.34;4953582;29;20028;-81
2022/03/23 03:58:48;;;;;;;67.05;38.33;;;;;;;1.71;68.91;101147.81;4937104;29;20031;-81
2022/03/23 04:01:14;;;;;;;62.42;35.25;;;;;;;1.68;69.59;101151.19;4953420;29;20039;-81
2022/03/23 04:03:40;;;;;;;64.03;37.50;;;;;;;1.69;70.12;101149.53;4937120;29;20035;-81
2022/03/23 04:06:06;;;;;;;61.22;36.63;;;;;;;1.64;70.08;101144.28;4936998;29;20031;-81
2022/03/23 04:08:32;;;;;;;60.25;36.85;;;;;;;1.62;69.66;101142.56;4953374;29;20387;-81
2022/03/23 04:10:57;;;;;;;66.18;38.88;;;;;;;1.58;69.20;101140.81;4936529;29;20066;-80
2022/03/23 04:13:23;;;;;;;55.83;33.33;;;;;;;1.61;70.28;101151.97;4953112;29;20048;-80
2022/03/23 04:15:48;;;;;;;54.22;33.17;;;;;;;1.57;70.83;101150.22;4934529;29;20131;-80
2022/03/23 04:18:14;;;;;;;57.30;34.65;;;;;;;1.38;70.98;101128.53;4935312;28;20023;-81
2022/03/23 04:20:39;;;;;;;61.28;35.58;;;;;;;1.48;71.02;101150.09;4936232;29;20468;-81
2022/03/23 04:23:04;;;;;;;61.15;34.85;;;;;;;1.47;71.02;101150.91;4934764;28;20058;-80
2022/03/23 04:25:30;;;;;;;62.95;35.70;;;;;;;1.44;70.94;101149.19;4935004;28;20028;-80
2022/03/23 04:27:58;;;;;;;76.00;39.60;;;;;;;1.44;70.44;101154.31;4935992;29;20035;-80
2022/03/23 04:30:28;;;;;;;63.05;39.83;;;;;;;1.39;71.24;101155.94;4935991;28;20661;-80
2022/03/23 04:32:53;;;;;;;69.13;40.20;;;;;;;1.34;71.95;101154.13;4936041;29;20043;-80
2022/03/23 04:35:21;;;;;;;64.03;38.65;;;;;;;1.30;71.60;101147.22;4934850;29;20038;-79
2022/03/23 04:37:47;;;;;;;66.65;39.92;;;;;;;1.30;71.91;101154.94;4934591;28;20090;-80
2022/03/23 04:40:16;;;;;;;95.72;54.03;;;;;;;1.28;72.55;101156.63;4934724;29;20031;-79
2022/03/23 04:42:43;;;;;;;91.78;53.33;;;;;;;1.16;72.51;101139.31;4935735;29;20114;-79
2022/03/23 04:45:10;;;;;;;91.03;52.85;;;;;;;1.17;73.13;101143.63;4934654;29;20024;-80
2022/03/23 04:47:36;;;;;;;86.53;48.00;;;;;;;1.29;72.71;101155.78;4935970;29;20376;-79
2022/03/23 04:50:05;;;;;;;83.80;47.92;;;;;;;1.22;72.91;101135.16;4952056;29;20199;-79
2022/03/23 04:52:31;;;;;;;76.28;45.15;;;;;;;1.32;72.85;101143.00;4952436;29;20039;-79
2022/03/23 04:54:57;;;;;;;84.32;47.45;;;;;;;1.36;72.89;101155.91;4952162;29;20543;-79
2022/03/23 04:57:27;;;;;;;90.90;47.05;;;;;;;1.37;72.73;101149.91;4936200;29;20039;-79
2022/03/23 04:59:53;;;;;;;88.60;45.65;;;;;;;1.37;73.04;101152.47;4935970;29;20039;-79
2022/03/23 05:02:19;;;;;;;87.22;46.88;;;;;;;1.36;72.99;101152.47;4952338;29;20066;-79
2022/03/23 05:04:45;;;;;;;85.30;45.75;;;;;;;1.38;73.67;101154.19;4952429;29;20066;-79
2022/03/23 05:07:11;;;;;;;75.65;42.58;;;;;;;1.44;73.83;101168.84;4936123;29;20035;-79
2022/03/23 05:09:36;;;;;;;71.47;39.90;;;;;;;1.42;73.67;101162.81;4952211;29;20135;-78
2022/03/23 05:12:02;;;;;;;69.38;39.47;;;;;;;1.39;73.57;101148.25;4952167;29;20035;-79
2022/03/23 05:14:27;;;;;;;67.88;38.53;;;;;;;1.47;73.22;101146.63;4951884;29;20059;-79
2022/03/23 05:16:53;;;;;;;94.57;45.83;;;;;;;1.58;73.29;101145.94;4935765;29;20031;-79
2022/03/23 05:19:18;;;;;;;84.43;42.88;;;;;;;1.73;72.68;101151.28;4935973;29;20043;-80
2022/03/23 05:21:43;;;;;;;105.20;48.10;;;;;;;1.95;71.88;101148.16;4938185;29;20090;-79
2022/03/23 05:24:09;;;;;;;106.15;51.35;;;;;;;2.39;70.83;101142.66;4934668;29;20036;-80
2022/03/23 05:26:34;;;;;;;113.15;52.97;;;;;;;3.03;69.13;101152.69;4935349;29;20037;-79
2022/03/23 05:29:00;;;;;;;106.90;51.85;;;;;;;3.69;66.69;101148.84;4933816;29;20170;-79
2022/03/23 05:31:25;;;;;;;101.13;49.47;;;;;;;4.49;63.83;101131.97;4935281;29;20038;-80
2022/03/23 05:33:51;;;;;;;103.05;49.47;;;;;;;5.54;59.50;101126.78;4934795;29;20480;-79
2022/03/23 05:36:16;;;;;;;142.90;61.85;;;;;;;6.32;56.55;101140.31;4935037;29;20019;-79
2022/03/23 05:38:42;;;;;;;178.98;81.22;;;;;;;6.71;54.99;101134.03;4933788;29;20043;-79
2022/03/23 05:41:07;;;;;;;180.70;73.38;;;;;;;7.06;53.68;101125.13;4933383;29;20036;-80
2022/03/23 05:43:32;;;;;;;198.95;81.03;;;;;;;7.55;52.28;101134.19;4933778;28;20042;-80
2022/03/23 05:45:58;;;;;;;180.13;79.65;;;;;;;8.51;49.56;101122.59;4933426;29;20055;-79
2022/03/23 05:48:23;;;;;;;196.82;82.97;;;;;;;10.35;45.52;101130.53;4935006;29;20067;-80
2022/03/23 05:50:49;;;;;;;179.93;81.53;;;;;;;11.28;41.87;101111.78;4934946;29;20030;-79
2022/03/23 05:53:14;;;;;;;123.32;64.22;;;;;;;11.14;40.64;101112.16;4933514;29;20074;-80
2022/03/23 05:55:39;;;;;;;92.43;53.03;;;;;;;10.91;41.15;101117.06;4933442;29;20028;-80
2022/03/23 05:58:05;;;;;;;89.90;51.70;;;;;;;10.81;41.53;101108.63;4935008;29;20028;-80
2022/03/23 06:00:31;;;;;;;136.68;67.00;;;;;;;11.39;41.22;101130.63;4934881;29;20377;-79
2022/03/23 06:02:57;;;;;;;133.85;65.60;;;;;;;13.01;38.98;101124.97;4933138;29;20063;-79
2022/03/23 06:05:22;;;;;;;119.75;59.40;;;;;;;13.85;36.69;101129.91;4933486;29;20077;-81
2022/03/23 06:07:48;;;;;;;99.40;54.60;;;;;;;13.64;36.42;101128.06;4934760;29;20028;-81
2022/03/23 06:10:13;;;;;;;95.05;51.92;;;;;;;13.20;36.72;101123.47;4934414;29;20495;-79
2022/03/23 06:12:39;;;;;;;76.43;47.42;;;;;;;12.92;37.52;101122.66;4934549;29;20392;-78
2022/03/23 06:15:06;;;;;;;83.30;49.20;;;;;;;14.13;36.18;101139.38;4934284;29;20168;-78
2022/03/23 06:17:31;;;;;;;78.88;47.65;;;;;;;15.58;33.14;101119.50;4933454;29;20031;-79
2022/03/23 06:19:57;;;;;;;79.65;46.97;;;;;;;15.29;32.48;101120.78;4934686;29;20031;-77
2022/03/23 06:22:22;;;;;;;72.88;43.67;;;;;;;14.80;33.00;101130.69;4934491;29;20476;-78
2022/03/23 06:24:47;;;;;;;68.28;44.47;;;;;;;14.46;32.67;101130.25;4934505;29;20027;-78
2022/03/23 06:27:13;;;;;;;68.57;41.90;;;;;;;15.23;31.87;101125.38;4934528;29;20110;-78
2022/03/23 06:29:39;;;;;;;65.47;42.10;;;;;;;16.75;29.77;101120.28;4933305;29;20024;-78
2022/03/23 06:32:04;;;;;;;64.28;42.33;;;;;;;16.49;29.38;101129.41;4934381;29;20032;-79
2022/03/23 06:34:30;;;;;;;66.70;42.63;;;;;;;15.90;30.00;101134.72;4935270;29;20056;-77
2022/03/23 06:36:55;;;;;;;63.95;41.30;;;;;;;15.73;30.47;101137.25;4938135;29;20661;-78
2022/03/23 06:39:21;;;;;;;66.13;41.65;;;;;;;16.85;29.61;101139.97;4968857;28;20106;-77
2022/03/23 06:41:46;;;;;;;62.35;40.78;;;;;;;17.98;27.27;101138.59;4938266;29;20379;-78
2022/03/23 06:44:13;;;;;;;62.97;41.10;;;;;;;17.66;27.63;101136.72;4968747;28;20023;-76
2022/03/23 06:46:39;;;;;;;61.63;40.67;;;;;;;17.19;27.57;101136.50;4938040;29;20027;-76
2022/03/23 06:49:05;;;;;;;65.13;41.10;;;;;;;17.51;28.10;101132.22;4937839;29;20039;-77
2022/03/23 06:51:31;;;;;;;62.47;41.03;;;;;;;19.20;25.64;101129.06;4937999;29;20024;-79
2022/03/23 06:53:56;;;;;;;57.58;41.55;;;;;;;19.00;25.59;101135.50;4937640;29;20030;-78
2022/03/23 06:56:22;;;;;;;58.38;38.00;;;;;;;18.36;25.87;101144.41;4938065;29;20106;-78
2022/03/23 06:58:48;;;;;;;58.90;40.05;;;;;;;18.62;26.64;101133.25;4937936;29;20023;-82
2022/03/23 07:01:13;;;;;;;57.58;39.75;;;;;;;20.12;24.99;101139.38;4958200;28;20086;-81
2022/03/23 07:03:38;;;;;;;63.97;39.42;;;;;;;19.90;24.31;101121.34;4936868;29;20103;-81
2022/03/23 07:06:04;;;;;;;60.08;38.55;;;;;;;19.79;25.05;101124.63;4968231;28;20028;-81
2022/03/23 07:11:13;;;;;;;57.33;38.90;;;;;;;21.28;23.03;101113.25;4937023;29;20047;-81
2022/03/23 07:13:39;;;;;;;57.55;38.08;;;;;;;21.07;23.56;101125.25;4937113;29;20059;-79
2022/03/23 07:16:04;;;;;;;53.78;38.38;;;;;;;22.35;22.53;101121.66;4937266;29;20391;-78
2022/03/23 07:18:30;;;;;;;53.05;37.28;;;;;;;25.31;19.94;101112.53;4936144;29;20040;-81
2022/03/23 07:20:56;;;;;;;50.53;36.70;;;;;;;25.90;18.72;101121.72;4935672;29;20062;-81
2022/03/23 07:23:22;;;;;;;55.60;37.20;;;;;;;24.82;19.28;101124.66;4936367;29;20031;-81
2022/03/23 07:25:47;;;;;;;53.53;36.88;;;;;;;25.38;19.28;101119.06;4937515;29;20028;-80
2022/03/23 07:28:13;;;;;;;53.33;36.88;;;;;;;27.45;17.52;101118.34;4937413;29;20070;-80
2022/03/23 07:30:40;;;;;;;50.53;34.85;;;;;;;29.51;16.19;101113.16;4937199;29;20027;-79
2022/03/23 07:33:06;;;;;;;50.95;34.10;;;;;;;31.16;14.34;101116.97;4936947;29;20027;-77
2022/03/23 07:35:31;;;;;;;51.53;36.15;;;;;;;32.44;13.58;101115.03;4937096;29;20345;-77
2022/03/23 07:37:57;;;;;;;46.17;33.47;;;;;;;33.47;12.93;101109.16;4936691;29;20024;-77
2022/03/23 07:40:22;;;;;;;43.30;32.58;;;;;;;33.95;12.17;101119.53;4935863;29;20051;-77
2022/03/23 07:42:48;;;;;;;38.92;30.88;;;;;;;34.64;11.87;101125.38;4936952;29;20028;-76
2022/03/23 07:45:14;;;;;;;43.92;33.63;;;;;;;35.40;11.49;101120.19;4935931;29;20032;-82
2022/03/23 07:47:39;;;;;;;38.65;30.33;;;;;;;35.77;10.70;101120.81;4935601;29;20503;-77
2022/03/23 07:50:06;;;;;;;43.10;32.13;;;;;;;35.51;10.43;101104.41;4936628;29;20032;-78
2022/03/23 07:52:32;;;;;;;38.22;31.75;;;;;;;33.76;11.20;101104.75;4936602;29;20524;-78
2022/03/23 07:54:57;;;;;;;39.97;31.25;;;;;;;30.23;13.04;101114.53;4936583;29;20051;-78
2022/03/23 07:57:22;;;;;;;37.42;29.85;;;;;;;27.29;14.80;101108.25;4935479;29;20118;-78
2022/03/23 07:59:48;;;;;;;42.50;30.85;;;;;;;25.10;16.39;101109.88;4936557;29;20031;-77
2022/03/23 08:02:13;;;;;;;37.58;28.17;;;;;;;23.46;18.00;101116.06;4934998;29;20027;-79
2022/03/23 08:04:39;;;;;;;45.97;29.13;;;;;;;22.25;19.26;101118.00;4936450;29;20036;-79
2022/03/23 08:07:04;;;;;;;39.60;30.70;;;;;;;21.20;19.95;101106.78;4936394;29;20213;-79
2022/03/23 08:09:30;;;;;;;35.28;27.38;;;;;;;20.11;20.73;101116.50;4936356;29;20040;-79
2022/03/23 08:11:56;;;;;;;38.15;27.75;;;;;;;19.41;21.81;101116.38;4935261;29;20071;-79
2022/03/23 08:14:22;;;;;;;34.55;25.85;;;;;;;18.97;22.13;101111.94;4936084;29;20043;-79
2022/03/23 08:16:47;;;;;;;38.17;25.52;;;;;;;18.67;22.67;101104.81;4934999;29;20399;-79
2022/03/23 08:19:13;;;;;;;39.83;26.27;;;;;;;18.38;23.17;101090.66;4935975;29;20032;-79
2022/03/23 08:21:39;;;;;;;35.88;26.60;;;;;;;18.11;23.46;101107.97;4936032;29;20043;-79
2022/03/23 08:24:04;;;;;;;33.58;23.35;;;;;;;17.93;23.56;101113.31;4936050;29;20032;-79
2022/03/23 08:26:30;;;;;;;28.55;20.15;;;;;;;17.74;23.11;101111.72;4934970;29;20032;-79
2022/03/23 08:28:55;;;;;;;28.77;19.30;;;;;;;17.57;23.61;101113.47;4934875;29;20079;-79
2022/03/23 08:31:21;;;;;;;31.42;20.83;;;;;;;17.45;23.53;101117.59;4935836;29;20035;-79
2022/03/23 08:33:46;;;;;;;30.02;21.10;;;;;;;17.33;23.88;101112.97;4935972;29;20032;-79
2022/03/23 08:36:12;;;;;;;28.27;20.05;;;;;;;17.28;24.40;101111.50;4934328;29;20027;-79
2022/03/23 08:38:37;;;;;;;26.42;18.25;;;;;;;17.25;24.50;101106.38;4936448;29;20040;-79
2022/03/23 08:41:04;;;;;;;28.23;17.38;;;;;;;17.15;24.09;101095.44;4935837;29;20027;-79
2022/03/23 08:43:30;;;;;;;26.35;17.58;;;;;;;17.08;24.23;101102.81;4934607;29;20348;-79
2022/03/23 08:45:56;;;;;;;25.92;19.45;;;;;;;17.03;24.29;101107.47;4934527;29;20034;-79
2022/03/23 08:48:21;;;;;;;30.38;20.88;;;;;;;16.87;24.93;101093.38;4916929;29;20135;-79
2022/03/23 08:50:51;;;;;;;24.63;17.60;;;;;;;16.94;24.82;101103.53;4933213;29;20071;-79
2022/03/23 08:53:17;;;;;;;28.58;18.33;;;;;;;16.84;24.51;101086.47;4932931;29;20138;-79
2022/03/23 08:55:42;;;;;;;25.52;18.08;;;;;;;16.73;24.47;101085.28;4933178;29;20368;-79
2022/03/23 08:58:09;;;;;;;27.33;18.65;;;;;;;16.69;24.78;101089.84;4932818;29;20115;-79
2022/03/23 09:00:35;;;;;;;24.63;17.27;;;;;;;16.58;24.73;101077.22;4932844;29;20063;-79
2022/03/23 09:03:00;;;;;;;23.80;16.60;;;;;;;16.50;25.20;101076.72;4932703;29;20082;-79
2022/03/23 09:05:26;;;;;;;20.67;16.17;;;;;;;16.56;24.80;101094.88;4916426;29;20134;-89
2022/03/23 09:07:51;;;;;;;21.85;15.65;;;;;;;16.50;24.38;101086.41;4917228;29;20039;-82
2022/03/23 09:10:18;;;;;;;21.35;16.10;;;;;;;16.51;23.89;101090.72;4932459;29;20027;-79
2022/03/23 09:12:44;;;;;;;22.98;16.27;;;;;;;16.45;24.40;101090.09;4914557;29;20044;-79
2022/03/23 09:15:12;;;;;;;23.13;14.60;;;;;;;16.47;24.54;101087.38;4916851;29;20039;-82
2022/03/23 09:17:38;;;;;;;23.50;15.30;;;;;;;16.44;24.65;101075.25;4917076;29;20074;-81
2022/03/23 09:20:05;;;;;;;24.00;14.60;;;;;;;16.44;24.60;101075.25;4929530;29;20032;-80
2022/03/23 09:22:34;;;;;;;23.63;15.27;;;;;;;16.44;24.72;101070.00;4935493;29;20095;-83
2022/03/23 09:25:03;;;;;;;19.20;15.05;;;;;;;16.55;24.68;101066.84;4934088;29;20396;-81
2022/03/23 09:27:28;;;;;;;19.95;16.00;;;;;;;16.57;24.36;101058.88;4933846;29;20376;-80
2022/03/23 09:29:54;;;;;;;22.08;13.90;;;;;;;16.63;24.11;101066.47;4933814;29;20118;-81
2022/03/23 09:32:19;;;;;;;21.60;15.60;;;;;;;16.65;24.55;101069.88;4934630;29;20115;-81
2022/03/23 09:34:45;;;;;;;22.42;15.77;;;;;;;16.62;24.36;101057.72;4932175;29;20094;-83
2022/03/23 09:39:55;;;;;;;27.30;17.00;;;;;;;16.68;25.03;101060.03;4931836;29;20505;-85
2022/03/23 09:42:22;;;;;;;24.88;17.30;;;;;;;16.68;24.64;101053.94;4933483;29;20035;-89
2022/03/23 09:44:48;;;;;;;38.05;17.20;;;;;;;16.60;24.55;101050.81;4952007;28;20040;-84
2022/03/23 09:47:14;;;;;;;21.77;17.27;;;;;;;16.46;24.52;101025.22;4934985;29;20036;-84
2022/03/23 09:49:40;;;;;;;23.52;16.95;;;;;;;16.52;23.74;101038.06;4933734;29;20549;-81
2022/03/23 09:52:06;;;;;;;25.63;17.15;;;;;;;16.49;24.81;101040.84;4934797;29;20115;-81
2022/03/23 09:54:31;;;;;;;25.80;17.42;;;;;;;16.60;24.78;101043.81;4933693;29;20023;-81
2022/03/23 09:56:57;;;;;;;29.90;18.23;;;;;;;16.61;25.01;101026.25;4933506;29;20035;-81
2022/03/23 09:59:22;;;;;;;31.27;18.75;;;;;;;16.77;24.94;101024.59;4933115;29;20032;-81
2022/03/23 10:01:49;;;;;;;26.55;18.25;;;;;;;16.86;24.93;101037.28;4933643;29;20391;-82
2022/03/23 10:04:20;;;;;;;22.70;16.85;;;;;;;16.90;23.39;101037.97;4934603;29;20117;-82
2022/03/23 10:07:07;;;;;;;23.50;16.52;;;;;;;16.93;22.06;101037.78;4934312;29;20455;-82
2022/03/23 10:10:11;;;;;;;22.63;15.77;;;;;;;16.88;21.79;101035.41;4939554;29;20028;-82
2022/03/23 10:13:14;;;;;;;21.58;14.38;;;;;;;16.88;21.71;101029.28;4937228;29;20084;-82
2022/03/23 10:15:58;;;;;;;20.73;13.13;;;;;;;16.90;21.37;101027.44;4919643;29;20111;-81
2022/03/23 10:18:54;;;;;;;19.77;13.75;;;;;;;16.92;20.78;101023.78;4919653;29;20036;-81
2022/03/23 10:21:27;;;;;;;18.30;12.65;;;;;;;16.86;20.70;101010.09;4921314;29;20044;-82
2022/03/23 10:24:02;;;;;;;20.25;12.68;;;;;;;17.04;21.38;101010.94;4903525;29;20378;-84
2022/03/23 10:26:29;;;;;;;17.85;11.93;;;;;;;17.03;20.94;101002.19;4903304;29;20518;-80
2022/03/23 10:28:56;;;;;;;24.67;12.82;;;;;;;17.15;20.82;101006.81;4903584;29;20070;-81
2022/03/23 10:31:25;;;;;;;19.42;13.63;;;;;;;17.20;20.69;101003.94;4903427;29;20028;-81
2022/03/23 10:34:08;;;;;;;20.58;13.82;;;;;;;17.21;20.53;101003.84;4919515;29;20039;-81
2022/03/23 10:36:39;;;;;;;22.52;13.85;;;;;;;17.30;21.22;101006.94;4903587;29;20044;-81
2022/03/23 10:39:12;;;;;;;17.38;14.10;;;;;;;17.30;21.01;100996.41;4919543;29;20073;-81
2022/03/23 10:41:38;;;;;;;21.92;16.13;;;;;;;17.32;21.23;100999.78;4903393;29;20574;-82
2022/03/23 10:44:14;;;;;;;27.27;17.17;;;;;;;17.39;21.44;101001.16;4903430;29;20040;-82
2022/03/23 10:46:43;;;;;;;25.73;16.40;;;;;;;17.42;22.40;100995.75;4903543;29;20562;-81
2022/03/23 10:49:10;;;;;;;25.55;18.33;;;;;;;17.41;21.78;100992.28;4915194;29;20044;-81
2022/03/23 10:51:37;;;;;;;25.27;17.45;;;;;;;17.36;21.63;101001.31;4940593;29;20027;-81
2022/03/23 10:54:17;;;;;;;32.60;20.73;;;;;;;17.37;22.05;100992.53;4939511;28;20023;-81
2022/03/23 10:56:43;;;;;;;26.60;19.73;;;;;;;17.34;22.14;100984.78;4939432;28;20059;-81
2022/03/23 10:59:26;;;;;;;25.83;18.77;;;;;;;17.31;22.01;100974.41;4939107;28;20391;-81
2022/03/23 11:02:04;;;;;;;27.52;19.00;;;;;;;17.44;22.82;100983.34;4940659;29;20075;-79
2022/03/23 11:04:43;;;;;;;31.45;22.05;;;;;;;17.48;22.71;100968.22;4939283;29;20032;-81
2022/03/23 11:07:25;;;;;;;31.17;22.02;;;;;;;17.50;22.80;100969.84;4940544;29;20031;-82
2022/03/23 11:18:10;;;;;;;28.83;18.90;;;;;;;17.56;22.50;100944.94;4937735;29;20038;-81
2022/03/23 11:20:43;;;;;;;30.52;19.55;;;;;;;17.63;22.80;100946.31;4935936;29;20028;-80
2022/03/23 11:23:25;;;;;;;30.52;21.08;;;;;;;17.69;22.74;100954.72;4935935;29;20087;-80
2022/03/23 11:25:53;;;;;;;35.67;19.83;;;;;;;17.49;22.46;100920.75;4936523;29;20047;-80
2022/03/23 11:28:20;;;;;;;28.88;19.83;;;;;;;17.57;22.53;100925.56;4935566;29;20415;-81
2022/03/23 11:30:47;;;;;;;28.88;19.45;;;;;;;17.66;22.38;100933.81;4937286;29;20028;-80
2022/03/23 11:33:21;;;;;;;28.55;19.88;;;;;;;17.71;21.70;100925.66;4935682;28;20067;-83